ADDS METAR Data INFO
IDs: Format: Raw Decoded Include TAF

Data at: 1509 UTC 29 May 2017

METAR for:KLRD (Laredo Intl Apt, TX, US)
Text:KLRD 291456Z 06004KT 10SM SCT100 24/21 A3003 RMK AO2 SLP171 T02440211 53020 $
Temperature: 24.4°C ( 76°F)
Dewpoint: 21.1°C ( 70°F) [RH = 82%]
Pressure (altimeter):30.03 inches Hg (1017.0 mb) [Sea level pressure: 1017.1 mb]
Winds:from the ENE (60 degrees) at 5 MPH (4 knots; 2.1 m/s)
Visibility:10 or more sm (16+ km)
Ceiling:at least 12,000 feet AGL
Clouds: scattered clouds at 10000 feet AGL
QC Flag:SOME DATA ABOVE MAY BE INACCURATE!!!"$" is an indication the sensor requires maintenance.


Page loaded:  15:09 UTC  |   08:09 AM Pacific  |   09:09 AM Mountain  |   10:09 AM Central  |   11:09 AM Eastern

 

ADVISORIES

FORECASTS

FORECASTS

OBSERVATIONS

USER TOOLS

ABOUT US